createdAt,value
2023-03-16T07:42:18.767Z,97.10
2023-03-16T07:43:04.875Z,97.40
2023-03-16T07:43:40.654Z,98.00
2023-03-16T07:44:14.823Z,97.70
2023-03-16T07:44:48.174Z,97.70
2023-03-16T07:45:21.503Z,97.80
2023-03-16T07:45:53.626Z,97.80
2023-03-16T07:46:25.729Z,97.80
2023-03-16T07:46:57.765Z,97.60
2023-03-16T07:47:33.584Z,97.70
2023-03-16T07:48:10.802Z,97.90
2023-03-16T07:48:54.333Z,98.30
2023-03-16T07:49:26.408Z,97.90
2023-03-16T07:50:00.261Z,97.70
2023-03-16T07:50:33.212Z,98.00
2023-03-16T07:51:05.237Z,98.40
2023-03-16T07:51:37.612Z,98.10
2023-03-16T07:52:10.140Z,98.10
2023-03-16T07:52:46.190Z,98.00
2023-03-16T07:53:18.408Z,98.30
2023-03-16T07:53:55.444Z,97.80
2023-03-16T07:54:32.706Z,97.80
2023-03-16T07:55:05.620Z,98.30
2023-03-16T07:55:39.033Z,98.00
2023-03-16T07:56:12.798Z,98.00
2023-03-16T07:56:49.679Z,98.00
2023-03-16T07:57:42.366Z,98.00
2023-03-16T07:58:14.326Z,98.10
2023-03-16T07:58:48.004Z,98.40
2023-03-16T07:59:21.363Z,98.30
2023-03-16T07:59:53.284Z,98.30
2023-03-16T08:00:25.450Z,98.10
2023-03-16T08:00:59.134Z,98.30
2023-03-16T08:01:31.007Z,97.80
2023-03-16T08:02:03.824Z,98.10
2023-03-16T08:02:36.113Z,97.40
2023-03-16T08:03:08.880Z,97.80
2023-03-16T08:03:41.174Z,97.90
2023-03-16T08:04:13.141Z,98.30
2023-03-16T08:04:46.109Z,98.20
2023-03-16T08:05:19.697Z,98.20
2023-03-16T08:05:55.758Z,98.40
2023-03-16T08:06:28.264Z,98.40
2023-03-16T08:07:02.066Z,98.00
2023-03-16T08:07:46.953Z,98.00
2023-03-16T08:08:25.599Z,98.60
2023-03-16T08:08:57.402Z,98.20
2023-03-16T08:09:36.164Z,98.10
2023-03-16T08:10:11.563Z,98.20
2023-03-16T08:10:53.546Z,98.10
2023-03-16T08:11:29.521Z,98.50
2023-03-16T08:12:05.852Z,98.50
2023-03-16T08:12:39.722Z,98.10
2023-03-16T08:13:11.732Z,98.20
2023-03-16T08:13:47.150Z,97.90
2023-03-16T08:14:19.463Z,98.20
2023-03-16T08:15:05.967Z,98.40
2023-03-16T08:15:37.901Z,98.10
2023-03-16T08:16:16.322Z,97.90
2023-03-16T08:16:51.577Z,98.40
2023-03-16T08:17:24.213Z,98.20
2023-03-16T08:17:56.369Z,98.00
2023-03-16T08:18:31.384Z,98.40
2023-03-16T08:19:03.634Z,97.90
2023-03-16T08:19:35.619Z,98.40
2023-03-16T08:20:12.606Z,98.10
2023-03-16T08:20:44.578Z,98.00
2023-03-16T08:21:20.055Z,98.40
2023-03-16T08:22:01.118Z,98.00
2023-03-16T08:22:38.369Z,98.00
2023-03-16T08:23:11.961Z,98.10
2023-03-16T08:23:50.245Z,98.00
2023-03-16T08:24:23.411Z,98.10
2023-03-16T08:24:55.310Z,98.30
2023-03-16T08:25:27.843Z,98.10
2023-03-16T08:26:08.917Z,98.20
2023-03-16T08:26:41.404Z,98.30
2023-03-16T08:27:13.246Z,98.20
2023-03-16T08:27:48.620Z,98.70
2023-03-16T08:28:21.589Z,98.10
2023-03-16T08:28:54.384Z,98.20
2023-03-16T08:29:26.972Z,98.30
2023-03-16T08:30:04.615Z,98.20
2023-03-16T08:30:37.900Z,98.10
2023-03-16T08:31:25.602Z,98.20
2023-03-16T08:32:07.388Z,98.50
2023-03-16T08:32:45.257Z,98.20
2023-03-16T08:33:18.009Z,98.20
2023-03-16T08:33:49.823Z,98.30
2023-03-16T08:34:25.333Z,98.40
2023-03-16T08:34:58.753Z,98.30
2023-03-16T08:35:30.629Z,98.20
2023-03-16T08:36:02.671Z,98.10
2023-03-16T08:36:34.537Z,98.40
2023-03-16T08:37:06.836Z,98.10
2023-03-16T08:37:38.884Z,98.20
2023-03-16T08:38:12.335Z,98.30
2023-03-16T08:38:53.530Z,97.90
2023-03-16T08:39:32.281Z,97.90
2023-03-16T08:40:06.463Z,98.10
2023-03-16T08:40:41.459Z,97.80
2023-03-16T08:41:16.476Z,98.00
2023-03-16T08:41:51.005Z,98.00
2023-03-16T08:42:30.050Z,98.00
2023-03-16T08:43:05.740Z,98.10
2023-03-16T08:43:37.873Z,98.10
2023-03-16T08:44:10.938Z,98.20
2023-03-16T08:44:43.899Z,98.00
2023-03-16T08:45:17.323Z,98.40
2023-03-16T08:45:50.803Z,98.10
2023-03-16T08:46:25.315Z,98.00
2023-03-16T08:47:02.974Z,98.10
2023-03-16T08:47:34.927Z,98.10
2023-03-16T08:48:07.514Z,98.20
2023-03-16T08:48:41.714Z,98.10
2023-03-16T08:49:14.411Z,98.00
2023-03-16T08:49:47.269Z,98.10
2023-03-16T08:50:21.086Z,98.10
2023-03-16T08:50:53.942Z,97.80
2023-03-16T08:51:25.930Z,98.00
2023-03-16T08:51:57.722Z,98.00
2023-03-16T08:52:29.538Z,98.40
2023-03-16T08:53:01.338Z,98.00
2023-03-16T08:53:33.916Z,98.10
2023-03-16T08:54:06.073Z,98.30
2023-03-16T08:54:38.578Z,98.10
2023-03-16T08:55:11.135Z,98.00
2023-03-16T08:55:43.021Z,98.10
2023-03-16T08:56:15.012Z,98.40
2023-03-16T08:56:46.767Z,98.10
2023-03-16T08:57:18.987Z,98.00
2023-03-16T08:57:50.773Z,98.10
2023-03-16T08:58:22.527Z,98.00
2023-03-16T08:58:54.334Z,98.00
2023-03-16T08:59:30.214Z,98.10
2023-03-16T09:00:08.737Z,98.00
2023-03-16T09:00:41.211Z,98.00
2023-03-16T09:01:15.466Z,98.10
2023-03-16T09:01:47.819Z,98.00
2023-03-16T09:02:20.642Z,98.00
2023-03-16T09:02:52.475Z,98.00
2023-03-16T09:03:24.879Z,97.90
2023-03-16T09:03:56.660Z,98.10
2023-03-16T09:04:29.957Z,98.10
2023-03-16T09:05:02.277Z,98.10
2023-03-16T09:05:34.518Z,98.00
2023-03-16T09:06:10.064Z,98.10
2023-03-16T09:06:42.298Z,98.00
2023-03-16T09:07:14.098Z,98.20
2023-03-16T09:07:48.906Z,97.80
2023-03-16T09:08:20.898Z,98.40
2023-03-16T09:08:52.896Z,98.10
2023-03-16T09:09:24.778Z,98.30
2023-03-16T09:09:57.073Z,98.10
2023-03-16T09:10:29.338Z,98.00
2023-03-16T09:11:03.807Z,98.20
2023-03-16T09:11:36.130Z,97.80
2023-03-16T09:12:08.610Z,98.10
2023-03-16T09:12:40.836Z,98.00
2023-03-16T09:13:12.832Z,98.00
2023-03-16T09:13:45.111Z,98.30
2023-03-16T09:14:16.922Z,97.80
2023-03-16T09:14:48.963Z,98.30
2023-03-16T09:15:21.620Z,98.30
2023-03-16T09:15:54.158Z,97.80
2023-03-16T09:16:26.664Z,98.20
2023-03-16T09:16:58.520Z,98.10
2023-03-16T09:17:30.432Z,98.30
2023-03-16T09:18:04.025Z,98.10
2023-03-16T09:18:36.688Z,98.00
2023-03-16T09:19:08.481Z,98.30
2023-03-16T09:19:51.153Z,98.20
2023-03-16T09:20:35.224Z,98.50
2023-03-16T09:21:10.342Z,98.40
2023-03-16T09:21:42.268Z,97.90
2023-03-16T09:22:14.041Z,98.40
2023-03-16T09:22:45.878Z,98.10
2023-03-16T09:23:18.968Z,98.20
2023-03-16T09:23:50.873Z,98.20
2023-03-16T09:24:22.709Z,98.40
2023-03-16T09:24:54.742Z,98.00
2023-03-16T09:25:26.596Z,98.40
2023-03-16T09:26:01.125Z,98.30
2023-03-16T09:26:33.682Z,98.40
2023-03-16T09:27:05.657Z,98.20
2023-03-16T09:27:37.960Z,98.30
2023-03-16T09:28:09.814Z,98.10
2023-03-16T09:28:42.584Z,98.40
2023-03-16T09:29:14.653Z,98.40
2023-03-16T09:29:46.921Z,97.90
2023-03-16T09:30:19.739Z,98.20
2023-03-16T09:30:51.566Z,98.20
2023-03-16T09:31:23.524Z,98.40
2023-03-16T09:31:55.955Z,98.40
2023-03-16T09:32:28.409Z,98.10
2023-03-16T09:33:00.340Z,98.00
2023-03-16T09:33:33.692Z,98.30
2023-03-16T09:34:05.723Z,98.10
2023-03-16T09:34:37.999Z,98.30
2023-03-16T09:35:09.993Z,98.00
2023-03-16T09:35:42.567Z,98.40
2023-03-16T09:36:15.001Z,98.50
2023-03-16T09:36:47.265Z,98.40
2023-03-16T09:37:19.069Z,98.30
2023-03-16T09:38:07.259Z,98.60
2023-03-16T09:38:39.656Z,98.30
2023-03-16T09:39:13.211Z,98.10
2023-03-16T09:39:45.647Z,98.30
2023-03-16T09:40:38.084Z,98.50
2023-03-16T09:41:34.406Z,98.20
2023-03-16T09:42:12.124Z,97.90
2023-03-16T09:42:57.045Z,97.90
2023-03-16T09:43:57.819Z,98.00
2023-03-16T09:44:44.435Z,98.00
2023-03-16T09:45:34.202Z,98.00
2023-03-16T09:46:11.886Z,99.00
2023-03-16T09:46:48.619Z,99.50
2023-03-16T09:47:28.639Z,99.30
2023-03-16T09:48:04.729Z,99.60
2023-03-16T09:48:38.747Z,99.50
2023-03-16T09:49:13.047Z,99.70
2023-03-16T09:49:48.963Z,99.70
2023-03-16T09:50:30.352Z,99.40
2023-03-16T09:51:31.631Z,99.30
2023-03-16T09:52:33.381Z,98.10
2023-03-16T09:53:13.784Z,98.10
2023-03-16T09:53:47.911Z,99.50
2023-03-16T09:54:45.945Z,99.60
2023-03-16T09:55:20.686Z,98.20
2023-03-16T09:56:11.156Z,98.20
2023-03-16T09:56:44.559Z,98.10
2023-03-16T09:57:31.059Z,99.70
2023-03-16T09:58:12.186Z,98.20
2023-03-16T09:58:44.000Z,99.70
2023-03-16T09:59:19.101Z,99.60
2023-03-16T09:59:51.111Z,98.70
2023-03-16T10:00:30.752Z,99.60
2023-03-16T10:01:27.072Z,99.50
2023-03-16T10:02:17.654Z,98.20
2023-03-16T10:02:55.885Z,99.80
2023-03-16T10:04:06.041Z,98.10
2023-03-16T10:05:07.473Z,98.20
2023-03-16T10:05:39.580Z,98.30
2023-03-16T10:06:16.812Z,99.70
2023-03-16T10:07:02.626Z,99.90
2023-03-16T10:07:34.395Z,99.90
2023-03-16T10:08:09.080Z,99.70
2023-03-16T10:08:45.603Z,99.90
2023-03-16T10:09:35.878Z,99.90
2023-03-16T10:10:10.906Z,99.90
2023-03-16T10:11:09.705Z,99.70
2023-03-16T10:11:48.435Z,98.50
2023-03-16T10:12:26.613Z,99.90
2023-03-16T10:13:01.492Z,99.90
2023-03-16T10:13:55.128Z,99.90
2023-03-16T10:14:55.019Z,98.80
2023-03-16T10:15:33.389Z,99.90
2023-03-16T10:16:31.675Z,99.90
2023-03-16T10:17:19.369Z,99.00
2023-03-16T10:18:07.156Z,98.90
2023-03-16T10:18:44.995Z,98.80
2023-03-16T10:19:33.102Z,99.90
2023-03-16T10:20:09.041Z,99.90
2023-03-16T10:20:41.896Z,99.90
2023-03-16T10:21:18.139Z,99.90
2023-03-16T10:21:54.394Z,99.90
2023-03-16T10:22:40.975Z,99.90
2023-03-16T10:23:24.933Z,98.10
2023-03-16T10:24:02.115Z,98.10
2023-03-16T10:25:03.466Z,98.60
2023-03-16T10:25:52.304Z,97.90
2023-03-16T10:26:34.006Z,97.90
2023-03-16T10:27:21.025Z,97.90
2023-03-16T10:27:54.081Z,97.90
2023-03-16T10:28:31.961Z,98.20
2023-03-16T10:29:09.628Z,98.50
2023-03-16T10:29:41.472Z,98.00
2023-03-16T10:30:28.219Z,97.90
2023-03-16T10:31:01.692Z,97.80
2023-03-16T10:31:35.264Z,97.90
2023-03-16T10:32:16.659Z,97.80
2023-03-16T10:32:49.480Z,97.80
2023-03-16T10:33:33.453Z,98.20
2023-03-16T10:34:06.462Z,97.90
2023-03-16T10:34:38.382Z,97.70
2023-03-16T10:35:25.202Z,97.70
2023-03-16T10:36:24.279Z,98.30
2023-03-16T10:36:56.264Z,97.80
2023-03-16T10:37:31.019Z,98.10
2023-03-16T10:38:02.781Z,98.20
2023-03-16T10:38:40.403Z,97.80
2023-03-16T10:39:16.321Z,97.60
2023-03-16T10:39:49.586Z,98.10
2023-03-16T10:40:22.203Z,97.80
2023-03-16T10:40:54.549Z,97.90
2023-03-16T10:41:33.924Z,97.90
2023-03-16T10:42:16.819Z,98.10
2023-03-16T10:42:48.763Z,98.00
2023-03-16T10:43:21.009Z,98.10
2023-03-16T10:44:10.057Z,98.20
2023-03-16T10:44:41.859Z,97.90
2023-03-16T10:45:31.345Z,98.30
2023-03-16T10:46:03.653Z,97.80
2023-03-16T10:46:45.984Z,97.90
2023-03-16T10:47:24.377Z,98.10
2023-03-16T10:48:14.016Z,98.20
2023-03-16T10:49:04.072Z,97.90
2023-03-16T10:49:48.912Z,98.20
2023-03-16T10:50:25.407Z,97.80
2023-03-16T10:50:58.142Z,97.90
2023-03-16T10:51:33.599Z,97.90
2023-03-16T10:52:20.632Z,98.10
2023-03-16T10:52:56.604Z,97.80
2023-03-16T10:53:34.862Z,98.10
2023-03-16T10:54:17.330Z,98.10
2023-03-16T10:55:07.841Z,98.20
2023-03-16T10:55:47.736Z,97.80
2023-03-16T10:56:25.141Z,98.30
2023-03-16T10:56:58.211Z,97.90
2023-03-16T10:57:31.608Z,97.90
2023-03-16T10:58:04.190Z,98.20
2023-03-16T10:58:42.021Z,97.90
2023-03-16T10:59:35.624Z,97.90
2023-03-16T11:00:22.149Z,98.10
2023-03-16T11:00:54.998Z,98.00
2023-03-16T11:01:31.932Z,98.20
2023-03-16T11:02:16.666Z,98.00
2023-03-16T11:02:50.924Z,97.90
2023-03-16T11:03:33.565Z,98.20
2023-03-16T11:04:15.684Z,97.80
2023-03-16T11:05:31.112Z,97.70
2023-03-16T11:06:06.841Z,97.80
2023-03-16T11:06:57.212Z,97.90
2023-03-16T11:07:29.012Z,98.00
2023-03-16T11:08:13.083Z,98.10
2023-03-16T11:08:45.392Z,97.90
2023-03-16T11:09:32.893Z,97.80
2023-03-16T11:10:24.034Z,98.30
2023-03-16T11:10:59.287Z,98.20
2023-03-16T11:11:33.775Z,98.00
2023-03-16T11:12:27.485Z,97.90
2023-03-16T11:13:15.871Z,97.90
2023-03-16T11:13:49.119Z,98.00
2023-03-16T11:14:25.861Z,98.00
2023-03-16T11:15:23.595Z,97.80
2023-03-16T11:16:05.157Z,97.80
2023-03-16T11:16:56.839Z,98.10
2023-03-16T11:17:44.632Z,97.90
2023-03-16T11:18:57.261Z,97.90
2023-03-16T11:19:51.557Z,98.00
2023-03-16T11:20:30.784Z,98.00
2023-03-16T11:21:33.387Z,98.20
2023-03-16T11:22:17.838Z,97.90
2023-03-16T11:22:51.101Z,97.70
2023-03-16T11:23:33.107Z,98.00
2023-03-16T11:24:06.300Z,97.90
2023-03-16T11:25:03.102Z,98.00
2023-03-16T11:25:46.881Z,98.00
2023-03-16T11:26:33.381Z,98.10
2023-03-16T11:27:31.343Z,97.90
2023-03-16T11:28:08.344Z,97.90
2023-03-16T11:28:48.590Z,97.90
2023-03-16T11:29:46.966Z,97.70
2023-03-16T11:30:30.839Z,97.90
2023-03-16T11:31:17.066Z,97.90
2023-03-16T11:31:57.763Z,97.90
2023-03-16T11:32:43.267Z,97.90
2023-03-16T11:33:16.441Z,98.00
2023-03-16T11:33:49.226Z,98.00
2023-03-16T11:34:32.300Z,98.00
2023-03-16T11:35:16.529Z,97.90
2023-03-16T11:36:12.563Z,97.90
2023-03-16T11:36:50.263Z,97.80
2023-03-16T11:37:30.739Z,98.90
2023-03-16T11:38:11.443Z,97.80
2023-03-16T11:39:02.158Z,97.80
2023-03-16T11:39:58.366Z,97.90
2023-03-16T11:40:41.322Z,97.80
2023-03-16T11:41:31.538Z,98.00
2023-03-16T11:42:36.138Z,98.00
2023-03-16T11:43:29.335Z,97.50
2023-03-16T11:44:13.666Z,98.10
2023-03-16T11:45:17.559Z,97.90
2023-03-16T11:46:17.753Z,97.70
2023-03-16T11:47:05.532Z,97.80
2023-03-16T11:48:11.025Z,97.80
2023-03-16T11:49:00.297Z,97.80
2023-03-16T11:49:52.048Z,97.90
2023-03-16T11:50:37.739Z,97.90
2023-03-16T11:51:24.097Z,97.90
2023-03-16T11:52:09.520Z,97.90
2023-03-16T11:52:41.221Z,96.90
2023-03-16T11:53:15.986Z,98.20
2023-03-16T11:54:21.773Z,97.70
2023-03-16T11:55:19.644Z,97.80
2023-03-16T11:56:23.923Z,97.50
2023-03-16T11:57:30.733Z,97.60
2023-03-16T11:58:17.999Z,97.80
2023-03-16T11:59:29.770Z,97.60
2023-03-16T12:00:02.295Z,97.80
2023-03-16T12:00:56.388Z,97.60
2023-03-16T12:01:57.936Z,97.60
2023-03-16T12:02:39.654Z,97.60
2023-03-16T12:03:47.578Z,97.80
2023-03-16T12:04:38.327Z,97.80
2023-03-16T12:05:43.852Z,97.80
2023-03-16T12:07:20.380Z,97.40
2023-03-16T12:08:09.202Z,97.70
2023-03-16T12:09:04.401Z,97.50
2023-03-16T12:10:07.650Z,97.50
2023-03-16T12:10:58.677Z,97.70
2023-03-16T12:11:44.762Z,97.50
2023-03-16T12:12:43.217Z,97.80
2023-03-16T12:13:30.932Z,97.70
2023-03-16T12:14:20.616Z,98.00
2023-03-16T12:15:21.372Z,97.80
2023-03-16T12:16:05.678Z,97.70
2023-03-16T12:17:02.478Z,97.60
2023-03-16T12:17:40.519Z,97.50
2023-03-16T12:18:43.548Z,97.60
2023-03-16T12:19:30.539Z,97.60
2023-03-16T12:20:26.170Z,97.60
2023-03-16T12:21:05.722Z,97.50
2023-03-16T12:21:43.503Z,97.50
2023-03-16T12:22:21.663Z,97.50
2023-03-16T12:23:02.502Z,97.30
2023-03-16T12:23:49.467Z,97.50
2023-03-16T12:24:28.944Z,97.40
2023-03-16T12:25:02.488Z,97.80
2023-03-16T12:25:39.682Z,97.50
2023-03-16T12:26:12.439Z,97.60
2023-03-16T12:26:46.020Z,97.50
2023-03-16T12:27:25.830Z,97.20
2023-03-16T12:28:02.201Z,97.40
2023-03-16T12:28:34.854Z,97.50
2023-03-16T12:30:03.877Z,97.40
2023-03-16T12:30:44.425Z,97.30
2023-03-16T12:31:41.772Z,97.30
2023-03-16T12:32:31.667Z,97.10
2023-03-16T12:33:26.991Z,97.10
2023-03-16T12:34:16.440Z,97.30
2023-03-16T12:35:37.500Z,97.00
2023-03-16T12:36:46.978Z,97.10
2023-03-16T12:38:03.449Z,96.90
2023-03-16T12:38:43.095Z,96.90
2023-03-16T12:39:23.795Z,97.00
2023-03-16T12:40:36.397Z,96.80
2023-03-16T12:41:29.425Z,96.80
2023-03-16T12:42:08.424Z,96.70
2023-03-16T12:43:17.737Z,96.80
2023-03-16T12:44:02.916Z,96.80
2023-03-16T12:45:03.940Z,96.90
2023-03-16T12:45:46.399Z,96.80
2023-03-16T12:46:37.361Z,96.80
2023-03-16T12:47:31.357Z,96.80
2023-03-16T12:48:09.008Z,97.00
2023-03-16T12:48:51.071Z,96.90
2023-03-16T12:49:25.529Z,97.30
2023-03-16T12:50:06.207Z,97.20
2023-03-16T12:50:52.446Z,97.10
2023-03-16T12:51:41.532Z,97.10
2023-03-16T12:52:14.675Z,97.10
2023-03-16T12:52:50.696Z,97.20
2023-03-16T12:53:43.925Z,97.40
2023-03-16T12:54:25.309Z,97.00
2023-03-16T12:55:08.598Z,97.30
2023-03-16T12:55:45.139Z,97.10
2023-03-16T12:56:19.464Z,97.00
2023-03-16T12:56:54.215Z,96.90
2023-03-16T12:57:27.093Z,97.20
2023-03-16T12:58:02.700Z,97.00
2023-03-16T12:58:34.707Z,97.20
2023-03-16T12:59:07.758Z,97.10
2023-03-16T12:59:43.090Z,97.00
2023-03-16T13:00:16.411Z,96.80
2023-03-16T13:00:57.959Z,96.70
2023-03-16T13:01:37.923Z,96.60
2023-03-16T13:02:24.235Z,96.70
2023-03-16T13:02:57.360Z,96.50
2023-03-16T13:03:29.558Z,96.70
2023-03-16T13:04:19.223Z,96.70
2023-03-16T13:04:59.274Z,96.60
2023-03-16T13:05:34.717Z,96.60
2023-03-16T13:06:07.083Z,96.60
2023-03-16T13:06:45.341Z,96.60
2023-03-16T13:07:22.654Z,96.70
2023-03-16T13:08:13.619Z,96.60
2023-03-16T13:08:52.378Z,96.50
2023-03-16T13:09:28.468Z,96.50
2023-03-16T13:10:16.391Z,96.60
2023-03-16T13:11:05.377Z,96.50
2023-03-16T13:11:43.831Z,96.50
2023-03-16T13:12:41.707Z,96.50
2023-03-16T13:13:17.219Z,96.50
2023-03-16T13:14:00.938Z,96.50
2023-03-16T13:14:41.767Z,96.60
2023-03-16T13:15:25.518Z,96.60
2023-03-16T13:16:09.212Z,96.60
2023-03-16T13:16:41.329Z,96.70
2023-03-16T13:17:15.998Z,96.80
2023-03-16T13:17:50.928Z,96.70
2023-03-16T13:18:24.827Z,96.70
2023-03-16T13:18:57.558Z,96.70
2023-03-16T13:19:32.116Z,97.00
2023-03-16T13:20:04.029Z,96.80
2023-03-16T13:21:01.580Z,96.70
2023-03-16T13:21:42.649Z,96.70
2023-03-16T13:22:27.009Z,96.80
2023-03-16T13:23:18.080Z,96.60
2023-03-16T13:23:57.897Z,96.50
2023-03-16T13:24:39.951Z,96.50
2023-03-16T13:25:40.123Z,96.50
2023-03-16T13:26:36.139Z,96.50
2023-03-16T13:27:22.246Z,96.40
2023-03-16T13:27:56.256Z,96.50
2023-03-16T13:28:39.152Z,96.50
2023-03-16T13:29:22.976Z,96.30
2023-03-16T13:30:01.964Z,96.40
2023-03-16T13:30:35.173Z,96.30
2023-03-16T13:31:25.385Z,96.40
2023-03-16T13:32:03.104Z,96.50
2023-03-16T13:32:35.913Z,96.30
2023-03-16T13:33:20.741Z,96.40
2023-03-16T13:33:59.945Z,96.30
2023-03-16T13:34:49.984Z,96.30
2023-03-16T13:35:27.041Z,96.20
2023-03-16T13:36:00.280Z,96.20
2023-03-16T13:36:34.204Z,95.90
2023-03-16T13:37:15.418Z,96.10
2023-03-16T13:37:49.229Z,96.20
2023-03-16T13:38:25.777Z,96.20
2023-03-16T13:39:05.073Z,96.20
2023-03-16T13:39:36.831Z,96.00
2023-03-16T13:40:20.548Z,96.10
2023-03-16T13:40:57.853Z,96.00
2023-03-16T13:41:30.552Z,96.00
2023-03-16T13:42:23.324Z,95.90
2023-03-16T13:42:58.640Z,96.10
2023-03-16T13:43:32.954Z,95.90
2023-03-16T13:44:05.501Z,95.90
2023-03-16T13:44:41.617Z,95.90
2023-03-16T13:45:15.989Z,95.80
2023-03-16T13:45:48.333Z,95.80
2023-03-16T13:46:27.158Z,95.80
2023-03-16T13:47:05.113Z,95.90
2023-03-16T13:47:36.915Z,95.90
2023-03-16T13:48:13.501Z,95.90
2023-03-16T13:48:48.022Z,95.80
2023-03-16T13:49:20.389Z,95.80
2023-03-16T13:49:58.791Z,95.90
2023-03-16T13:50:35.033Z,95.90
2023-03-16T13:51:16.314Z,95.80
2023-03-16T13:51:49.485Z,95.80
2023-03-16T13:52:34.175Z,95.80
2023-03-16T13:53:18.544Z,95.70
2023-03-16T13:53:51.249Z,95.70
2023-03-16T13:54:32.112Z,95.80
2023-03-16T13:55:23.456Z,95.90
2023-03-16T13:56:00.015Z,95.70
2023-03-16T13:56:32.942Z,95.60
2023-03-16T13:57:07.289Z,95.60
2023-03-16T13:57:41.994Z,95.60
2023-03-16T13:58:35.494Z,95.70
2023-03-16T13:59:10.645Z,95.50
2023-03-16T13:59:43.649Z,95.50
2023-03-16T14:00:24.711Z,95.50
2023-03-16T14:00:59.090Z,95.40
2023-03-16T14:01:32.697Z,95.50
2023-03-16T14:02:18.446Z,95.50
2023-03-16T14:03:06.532Z,95.40
2023-03-16T14:03:42.255Z,95.50
2023-03-16T14:04:18.753Z,95.60
2023-03-16T14:04:50.597Z,95.50
2023-03-16T14:05:26.202Z,95.60
2023-03-16T14:05:58.055Z,95.40
2023-03-16T14:06:31.421Z,95.20
2023-03-16T14:07:03.854Z,95.40
2023-03-16T14:07:38.767Z,95.40
2023-03-16T14:08:23.425Z,95.30
2023-03-16T14:09:03.688Z,95.30
2023-03-16T14:09:36.163Z,95.30
2023-03-16T14:10:15.421Z,95.20
2023-03-16T14:10:48.463Z,95.40
2023-03-16T14:11:20.628Z,95.40
2023-03-16T14:21:52.889Z,95.10
2023-03-16T14:22:33.971Z,95.00
2023-03-16T14:23:05.816Z,96.70
2023-03-16T14:23:43.013Z,96.00
2023-03-16T14:24:36.897Z,97.80
2023-03-16T14:25:25.416Z,95.00
2023-03-16T14:25:57.479Z,95.10
2023-03-16T14:26:49.098Z,95.40
2023-03-16T14:27:28.689Z,96.70
2023-03-16T14:28:06.167Z,94.50
2023-03-16T14:28:38.460Z,95.80
2023-03-16T14:29:30.993Z,96.00
2023-03-16T14:30:16.642Z,97.70
2023-03-16T14:30:55.050Z,98.10
2023-03-16T14:31:38.682Z,98.10
2023-03-16T14:32:26.563Z,98.40
2023-03-16T14:33:04.546Z,98.80
2023-03-16T14:33:41.194Z,95.30
2023-03-16T14:34:42.567Z,95.10
2023-03-16T14:35:17.399Z,95.20
2023-03-16T14:35:56.008Z,95.40
2023-03-16T14:36:36.069Z,96.60
2023-03-16T14:37:11.770Z,97.20
2023-03-16T14:37:44.877Z,99.20
2023-03-16T14:38:28.885Z,95.20
2023-03-16T14:39:11.457Z,97.40
2023-03-16T14:39:43.540Z,99.70
2023-03-16T14:40:23.026Z,96.50
2023-03-16T14:40:58.446Z,96.30
2023-03-16T14:41:31.435Z,96.90
2023-03-16T14:42:05.284Z,98.20
2023-03-16T14:42:40.065Z,99.40
2023-03-16T14:43:12.709Z,97.40
2023-03-16T14:43:54.523Z,95.40
2023-03-16T14:44:32.058Z,94.90
2023-03-16T14:45:14.026Z,95.90
2023-03-16T14:45:45.894Z,94.80
2023-03-16T14:46:34.265Z,94.70
2023-03-16T14:47:07.166Z,94.70
2023-03-16T14:47:43.318Z,94.80
2023-03-16T14:48:21.716Z,94.70
2023-03-16T14:49:20.209Z,94.70
2023-03-16T14:49:53.281Z,94.70
2023-03-16T14:50:25.772Z,94.70
2023-03-16T14:51:00.146Z,94.70
2023-03-16T14:51:33.832Z,94.70
2023-03-16T14:52:24.725Z,94.60
2023-03-16T14:52:57.389Z,94.70
2023-03-16T14:53:30.043Z,94.60
2023-03-16T14:54:02.703Z,94.60
2023-03-16T14:54:34.762Z,94.50
2023-03-16T14:55:14.471Z,94.60
2023-03-16T14:55:47.413Z,94.60
2023-03-16T14:56:19.133Z,94.70
2023-03-16T14:56:55.972Z,94.70
2023-03-16T14:57:28.166Z,94.60
2023-03-16T14:57:59.926Z,94.60
2023-03-16T14:58:31.830Z,94.70
2023-03-16T14:59:03.635Z,94.70
2023-03-16T14:59:35.489Z,94.90
2023-03-16T15:00:12.513Z,94.60
2023-03-16T15:00:52.723Z,94.50
2023-03-16T15:01:25.287Z,94.60
2023-03-16T15:01:58.038Z,94.70
2023-03-16T15:02:32.706Z,94.60
2023-03-16T15:03:10.918Z,94.60
2023-03-16T15:03:43.590Z,94.80
2023-03-16T15:04:19.434Z,96.90
2023-03-16T15:04:51.798Z,94.60
2023-03-16T15:05:40.644Z,96.80
2023-03-16T15:06:12.522Z,94.60
2023-03-16T15:06:44.461Z,94.40
2023-03-16T15:07:27.427Z,94.70
2023-03-16T15:07:59.967Z,94.50
2023-03-16T15:08:37.004Z,94.50
2023-03-16T15:09:31.479Z,94.30
2023-03-16T15:10:22.298Z,96.40
2023-03-16T15:10:57.437Z,95.70
2023-03-16T15:11:29.633Z,96.30
2023-03-16T15:12:01.581Z,94.70
2023-03-16T15:12:34.753Z,94.50
2023-03-16T15:13:39.374Z,94.40
2023-03-16T15:14:32.296Z,94.40
2023-03-16T15:15:19.476Z,94.50
2023-03-16T15:15:51.287Z,94.40
2023-03-16T15:16:23.370Z,94.30
2023-03-16T15:16:55.263Z,96.50
2023-03-16T15:17:27.089Z,95.60
2023-03-16T15:18:00.261Z,94.70
2023-03-16T15:18:35.476Z,94.30
2023-03-16T15:19:07.189Z,94.40
2023-03-16T15:19:39.048Z,94.60
2023-03-16T15:20:14.221Z,96.10
2023-03-16T15:20:46.072Z,96.80
2023-03-16T15:21:23.310Z,94.40
2023-03-16T15:21:55.328Z,94.20
2023-03-16T15:22:38.819Z,94.30
2023-03-16T15:23:16.445Z,94.30
2023-03-16T15:23:49.242Z,94.50
2023-03-16T15:24:21.747Z,94.30
2023-03-16T15:24:54.317Z,94.30
2023-03-16T15:25:38.676Z,94.30
2023-03-16T15:26:24.491Z,94.30
2023-03-16T15:26:57.068Z,94.30
2023-03-16T15:27:35.651Z,94.70
2023-03-16T15:28:12.593Z,94.40
2023-03-16T15:28:44.420Z,94.40
2023-03-16T15:29:19.673Z,97.40
2023-03-16T15:29:52.389Z,95.70
2023-03-16T15:30:27.036Z,94.60
2023-03-16T15:31:01.756Z,94.40
2023-03-16T15:31:33.689Z,94.40
2023-03-16T15:32:11.913Z,94.40
2023-03-16T15:32:44.269Z,94.30
2023-03-16T15:33:17.189Z,94.50
2023-03-16T15:33:49.329Z,94.40
2023-03-16T15:34:22.435Z,94.60
2023-03-16T15:34:54.233Z,95.00
2023-03-16T15:35:26.763Z,94.40
2023-03-16T15:36:01.851Z,95.80
2023-03-16T15:36:33.748Z,94.30
2023-03-16T15:37:05.658Z,94.50
2023-03-16T15:37:37.540Z,94.40
2023-03-16T15:38:26.633Z,94.20
2023-03-16T15:38:58.443Z,94.20
2023-03-16T15:39:30.218Z,94.40
2023-03-16T15:40:02.676Z,94.30
2023-03-16T15:40:36.572Z,94.40
2023-03-16T15:41:12.545Z,94.30
2023-03-16T15:41:47.857Z,94.40
2023-03-16T15:42:20.277Z,94.50
2023-03-16T15:42:53.151Z,94.60
2023-03-16T15:43:28.889Z,94.40
2023-03-16T15:44:01.372Z,94.40
2023-03-16T15:44:33.148Z,94.40
2023-03-16T15:45:11.018Z,94.50
2023-03-16T15:45:43.545Z,94.50
2023-03-16T15:46:15.420Z,94.50
2023-03-16T15:46:47.851Z,94.60
2023-03-16T15:47:20.660Z,96.30
2023-03-16T15:47:53.593Z,94.50
2023-03-16T15:48:26.253Z,97.40
2023-03-16T15:48:57.970Z,94.50
2023-03-16T15:49:32.445Z,94.60
2023-03-16T15:50:12.652Z,94.20
2023-03-16T15:50:52.255Z,94.40
2023-03-16T15:51:27.807Z,94.60
2023-03-16T15:51:59.713Z,94.40
2023-03-16T15:52:36.663Z,94.60
2023-03-16T15:53:30.432Z,95.30
2023-03-16T15:54:06.909Z,94.50
2023-03-16T15:54:38.983Z,94.50
2023-03-16T15:55:20.746Z,95.60
2023-03-16T15:55:58.453Z,94.60
2023-03-16T15:56:41.182Z,95.00
2023-03-16T15:57:15.972Z,95.10
2023-03-16T15:57:51.517Z,94.70
2023-03-16T15:58:27.456Z,94.50
2023-03-16T15:59:02.785Z,94.50
2023-03-16T15:59:38.110Z,94.60
2023-03-16T16:00:23.578Z,94.90
2023-03-16T16:00:58.509Z,96.80
2023-03-16T16:01:39.185Z,94.50
2023-03-16T16:02:29.462Z,94.50
2023-03-16T16:03:02.905Z,94.50
2023-03-16T16:03:34.986Z,94.80
2023-03-16T16:04:15.391Z,97.30
2023-03-16T16:04:47.266Z,94.60
2023-03-16T16:05:19.130Z,97.10
2023-03-16T16:05:51.217Z,94.70
2023-03-16T16:06:24.160Z,95.20
2023-03-16T16:06:57.221Z,95.80
2023-03-16T16:07:29.406Z,96.60
2023-03-16T16:08:01.477Z,96.10
2023-03-16T16:08:33.223Z,95.50
2023-03-16T16:09:05.372Z,95.00
2023-03-16T16:09:38.238Z,94.90
2023-03-16T16:10:13.756Z,94.90
2023-03-16T16:10:47.822Z,94.70
2023-03-16T16:11:24.320Z,94.70
2023-03-16T16:11:56.302Z,95.60
2023-03-16T16:12:32.454Z,94.90
2023-03-16T16:13:04.335Z,94.80
2023-03-16T16:13:44.087Z,95.50
2023-03-16T16:14:22.065Z,95.00
2023-03-16T16:14:56.183Z,94.80
2023-03-16T16:15:29.503Z,95.00
2023-03-16T16:16:01.615Z,95.10
2023-03-16T16:16:34.343Z,98.00